sensor_id;sensor_type;location;lat;lon;timestamp;P1;durP1;ratioP1;P2;durP2;ratioP2
78778;SDS011;68121;52.404;5.318;2023-11-21T00:00:19;15.65;;;6.88;;
78778;SDS011;68121;52.404;5.318;2023-11-21T00:02:45;15.15;;;6.55;;
78778;SDS011;68121;52.404;5.318;2023-11-21T00:05:12;17.67;;;7.20;;
78778;SDS011;68121;52.404;5.318;2023-11-21T00:07:42;17.45;;;7.20;;
78778;SDS011;68121;52.404;5.318;2023-11-21T00:10:09;15.93;;;7.03;;
78778;SDS011;68121;52.404;5.318;2023-11-21T00:12:36;15.43;;;6.88;;
78778;SDS011;68121;52.404;5.318;2023-11-21T00:15:03;14.75;;;6.35;;
78778;SDS011;68121;52.404;5.318;2023-11-21T00:17:39;17.05;;;7.38;;
78778;SDS011;68121;52.404;5.318;2023-11-21T00:20:06;14.75;;;6.78;;
78778;SDS011;68121;52.404;5.318;2023-11-21T00:22:33;12.70;;;6.90;;
78778;SDS011;68121;52.404;5.318;2023-11-21T00:25:00;13.10;;;6.10;;
78778;SDS011;68121;52.404;5.318;2023-11-21T00:27:26;17.23;;;7.25;;
78778;SDS011;68121;52.404;5.318;2023-11-21T00:29:52;16.73;;;7.63;;
78778;SDS011;68121;52.404;5.318;2023-11-21T00:32:19;18.35;;;7.43;;
78778;SDS011;68121;52.404;5.318;2023-11-21T00:34:45;12.00;;;6.40;;
78778;SDS011;68121;52.404;5.318;2023-11-21T00:37:11;14.25;;;7.28;;
78778;SDS011;68121;52.404;5.318;2023-11-21T00:39:37;16.42;;;6.50;;
78778;SDS011;68121;52.404;5.318;2023-11-21T00:42:03;14.85;;;7.70;;
78778;SDS011;68121;52.404;5.318;2023-11-21T00:44:30;14.13;;;7.20;;
78778;SDS011;68121;52.404;5.318;2023-11-21T00:46:56;14.88;;;6.28;;
78778;SDS011;68121;52.404;5.318;2023-11-21T00:49:22;12.57;;;6.38;;
78778;SDS011;68121;52.404;5.318;2023-11-21T00:51:48;15.38;;;5.82;;
78778;SDS011;68121;52.404;5.318;2023-11-21T00:54:14;10.88;;;6.28;;
78778;SDS011;68121;52.404;5.318;2023-11-21T00:56:43;13.10;;;5.90;;
78778;SDS011;68121;52.404;5.318;2023-11-21T00:59:09;13.65;;;6.47;;
78778;SDS011;68121;52.404;5.318;2023-11-21T01:01:36;15.20;;;5.72;;
78778;SDS011;68121;52.404;5.318;2023-11-21T01:04:03;12.98;;;6.53;;
78778;SDS011;68121;52.404;5.318;2023-11-21T01:06:29;14.00;;;6.53;;
78778;SDS011;68121;52.404;5.318;2023-11-21T01:08:55;13.68;;;6.88;;
78778;SDS011;68121;52.404;5.318;2023-11-21T01:11:21;15.98;;;7.10;;
78778;SDS011;68121;52.404;5.318;2023-11-21T01:13:47;10.93;;;5.47;;
78778;SDS011;68121;52.404;5.318;2023-11-21T01:16:13;14.55;;;6.20;;
78778;SDS011;68121;52.404;5.318;2023-11-21T01:18:39;15.65;;;6.80;;
78778;SDS011;68121;52.404;5.318;2023-11-21T01:21:05;14.90;;;6.50;;
78778;SDS011;68121;52.404;5.318;2023-11-21T01:23:33;15.63;;;6.63;;
78778;SDS011;68121;52.404;5.318;2023-11-21T01:25:59;14.70;;;6.40;;
78778;SDS011;68121;52.404;5.318;2023-11-21T01:28:25;16.80;;;6.15;;
78778;SDS011;68121;52.404;5.318;2023-11-21T01:30:51;12.60;;;6.43;;
78778;SDS011;68121;52.404;5.318;2023-11-21T01:33:22;14.27;;;6.90;;
78778;SDS011;68121;52.404;5.318;2023-11-21T01:35:50;11.07;;;5.90;;
78778;SDS011;68121;52.404;5.318;2023-11-21T01:38:18;14.80;;;6.65;;
78778;SDS011;68121;52.404;5.318;2023-11-21T01:40:44;16.05;;;6.82;;
78778;SDS011;68121;52.404;5.318;2023-11-21T01:43:10;15.93;;;5.97;;
78778;SDS011;68121;52.404;5.318;2023-11-21T01:45:37;12.00;;;5.88;;
78778;SDS011;68121;52.404;5.318;2023-11-21T01:48:04;16.25;;;7.00;;
78778;SDS011;68121;52.404;5.318;2023-11-21T01:50:32;13.75;;;6.03;;
78778;SDS011;68121;52.404;5.318;2023-11-21T01:52:59;11.18;;;6.00;;
78778;SDS011;68121;52.404;5.318;2023-11-21T01:55:25;11.43;;;5.05;;
78778;SDS011;68121;52.404;5.318;2023-11-21T01:57:53;14.20;;;5.90;;
78778;SDS011;68121;52.404;5.318;2023-11-21T02:00:19;10.23;;;6.32;;
78778;SDS011;68121;52.404;5.318;2023-11-21T02:02:46;12.35;;;5.95;;
78778;SDS011;68121;52.404;5.318;2023-11-21T02:05:16;13.80;;;5.88;;
78778;SDS011;68121;52.404;5.318;2023-11-21T02:07:47;12.40;;;5.65;;
78778;SDS011;68121;52.404;5.318;2023-11-21T02:10:18;11.88;;;6.25;;
78778;SDS011;68121;52.404;5.318;2023-11-21T02:12:48;11.30;;;5.43;;
78778;SDS011;68121;52.404;5.318;2023-11-21T02:15:18;9.98;;;5.97;;
78778;SDS011;68121;52.404;5.318;2023-11-21T02:17:49;12.55;;;5.80;;
78778;SDS011;68121;52.404;5.318;2023-11-21T02:20:19;11.73;;;5.47;;
78778;SDS011;68121;52.404;5.318;2023-11-21T02:22:51;11.00;;;5.28;;
78778;SDS011;68121;52.404;5.318;2023-11-21T02:25:26;10.18;;;5.00;;
78778;SDS011;68121;52.404;5.318;2023-11-21T02:27:54;10.35;;;5.30;;
78778;SDS011;68121;52.404;5.318;2023-11-21T02:30:21;14.20;;;5.53;;
78778;SDS011;68121;52.404;5.318;2023-11-21T02:32:48;10.90;;;5.68;;
78778;SDS011;68121;52.404;5.318;2023-11-21T02:35:14;12.85;;;5.68;;
78778;SDS011;68121;52.404;5.318;2023-11-21T02:37:41;9.55;;;5.20;;
78778;SDS011;68121;52.404;5.318;2023-11-21T02:40:08;14.00;;;5.82;;
78778;SDS011;68121;52.404;5.318;2023-11-21T02:42:38;8.90;;;5.00;;
78778;SDS011;68121;52.404;5.318;2023-11-21T02:45:05;13.68;;;5.53;;
78778;SDS011;68121;52.404;5.318;2023-11-21T02:47:32;9.30;;;5.25;;
78778;SDS011;68121;52.404;5.318;2023-11-21T02:49:59;15.27;;;5.70;;
78778;SDS011;68121;52.404;5.318;2023-11-21T02:52:25;15.43;;;5.43;;
78778;SDS011;68121;52.404;5.318;2023-11-21T02:54:51;9.77;;;5.18;;
78778;SDS011;68121;52.404;5.318;2023-11-21T02:57:17;13.43;;;5.07;;
78778;SDS011;68121;52.404;5.318;2023-11-21T02:59:44;9.60;;;6.47;;
78778;SDS011;68121;52.404;5.318;2023-11-21T03:02:10;13.82;;;5.03;;
78778;SDS011;68121;52.404;5.318;2023-11-21T03:04:36;12.38;;;5.15;;
78778;SDS011;68121;52.404;5.318;2023-11-21T03:07:02;10.88;;;4.75;;
78778;SDS011;68121;52.404;5.318;2023-11-21T03:09:30;15.07;;;5.45;;
78778;SDS011;68121;52.404;5.318;2023-11-21T03:11:58;10.38;;;5.50;;
78778;SDS011;68121;52.404;5.318;2023-11-21T03:14:24;12.52;;;4.80;;
78778;SDS011;68121;52.404;5.318;2023-11-21T03:16:50;12.00;;;4.60;;
78778;SDS011;68121;52.404;5.318;2023-11-21T03:19:16;9.25;;;4.50;;
78778;SDS011;68121;52.404;5.318;2023-11-21T03:21:42;7.68;;;3.95;;
78778;SDS011;68121;52.404;5.318;2023-11-21T03:24:08;11.48;;;4.80;;
78778;SDS011;68121;52.404;5.318;2023-11-21T03:26:34;8.85;;;4.55;;
78778;SDS011;68121;52.404;5.318;2023-11-21T03:29:00;11.30;;;5.05;;
78778;SDS011;68121;52.404;5.318;2023-11-21T03:31:26;11.38;;;5.15;;
78778;SDS011;68121;52.404;5.318;2023-11-21T03:33:52;13.68;;;4.82;;
78778;SDS011;68121;52.404;5.318;2023-11-21T03:36:19;10.60;;;4.63;;
78778;SDS011;68121;52.404;5.318;2023-11-21T03:38:45;11.13;;;4.90;;
78778;SDS011;68121;52.404;5.318;2023-11-21T03:41:13;11.95;;;4.60;;
78778;SDS011;68121;52.404;5.318;2023-11-21T03:43:40;11.43;;;4.65;;
78778;SDS011;68121;52.404;5.318;2023-11-21T03:46:06;15.05;;;5.68;;
78778;SDS011;68121;52.404;5.318;2023-11-21T03:48:32;15.57;;;4.68;;
78778;SDS011;68121;52.404;5.318;2023-11-21T03:50:58;12.98;;;5.53;;
78778;SDS011;68121;52.404;5.318;2023-11-21T03:53:24;13.57;;;4.65;;
78778;SDS011;68121;52.404;5.318;2023-11-21T03:55:50;13.05;;;5.18;;
78778;SDS011;68121;52.404;5.318;2023-11-21T03:58:16;11.48;;;4.35;;
78778;SDS011;68121;52.404;5.318;2023-11-21T04:00:42;14.38;;;5.22;;
78778;SDS011;68121;52.404;5.318;2023-11-21T04:03:08;13.10;;;5.43;;
78778;SDS011;68121;52.404;5.318;2023-11-21T04:05:35;13.75;;;5.20;;
78778;SDS011;68121;52.404;5.318;2023-11-21T04:08:01;11.45;;;4.57;;
78778;SDS011;68121;52.404;5.318;2023-11-21T04:10:27;13.35;;;4.47;;
78778;SDS011;68121;52.404;5.318;2023-11-21T04:12:53;12.18;;;4.35;;
78778;SDS011;68121;52.404;5.318;2023-11-21T04:15:19;11.27;;;4.80;;
78778;SDS011;68121;52.404;5.318;2023-11-21T04:17:45;10.13;;;5.10;;
78778;SDS011;68121;52.404;5.318;2023-11-21T04:20:11;15.25;;;5.35;;
78778;SDS011;68121;52.404;5.318;2023-11-21T04:22:38;11.80;;;4.55;;
78778;SDS011;68121;52.404;5.318;2023-11-21T04:25:13;13.27;;;5.18;;
78778;SDS011;68121;52.404;5.318;2023-11-21T04:27:41;9.95;;;4.38;;
78778;SDS011;68121;52.404;5.318;2023-11-21T04:30:11;8.80;;;4.05;;
78778;SDS011;68121;52.404;5.318;2023-11-21T04:32:37;13.77;;;5.60;;
78778;SDS011;68121;52.404;5.318;2023-11-21T04:35:07;14.77;;;4.97;;
78778;SDS011;68121;52.404;5.318;2023-11-21T04:37:36;12.32;;;4.43;;
78778;SDS011;68121;52.404;5.318;2023-11-21T04:40:03;9.23;;;4.00;;
78778;SDS011;68121;52.404;5.318;2023-11-21T04:42:33;11.88;;;4.40;;
78778;SDS011;68121;52.404;5.318;2023-11-21T04:45:05;9.48;;;4.22;;
78778;SDS011;68121;52.404;5.318;2023-11-21T04:47:35;9.85;;;4.65;;
78778;SDS011;68121;52.404;5.318;2023-11-21T04:50:02;7.93;;;4.20;;
78778;SDS011;68121;52.404;5.318;2023-11-21T04:52:29;12.32;;;3.85;;
78778;SDS011;68121;52.404;5.318;2023-11-21T04:54:55;10.65;;;4.15;;
78778;SDS011;68121;52.404;5.318;2023-11-21T04:57:23;7.70;;;3.45;;
78778;SDS011;68121;52.404;5.318;2023-11-21T04:59:50;8.48;;;3.58;;
78778;SDS011;68121;52.404;5.318;2023-11-21T05:02:16;6.78;;;3.33;;
78778;SDS011;68121;52.404;5.318;2023-11-21T05:04:44;10.80;;;3.43;;
78778;SDS011;68121;52.404;5.318;2023-11-21T05:07:10;8.85;;;3.50;;
78778;SDS011;68121;52.404;5.318;2023-11-21T05:09:36;7.68;;;3.17;;
78778;SDS011;68121;52.404;5.318;2023-11-21T05:12:06;7.90;;;3.13;;
78778;SDS011;68121;52.404;5.318;2023-11-21T05:14:32;5.82;;;3.30;;
78778;SDS011;68121;52.404;5.318;2023-11-21T05:16:58;6.85;;;3.10;;
78778;SDS011;68121;52.404;5.318;2023-11-21T05:19:24;6.25;;;2.97;;
78778;SDS011;68121;52.404;5.318;2023-11-21T05:21:52;6.88;;;2.92;;
78778;SDS011;68121;52.404;5.318;2023-11-21T05:24:18;5.13;;;2.33;;
78778;SDS011;68121;52.404;5.318;2023-11-21T05:26:44;7.43;;;2.00;;
78778;SDS011;68121;52.404;5.318;2023-11-21T05:29:10;3.75;;;1.92;;
78778;SDS011;68121;52.404;5.318;2023-11-21T05:31:36;4.75;;;2.00;;
78778;SDS011;68121;52.404;5.318;2023-11-21T05:34:03;6.53;;;2.15;;
78778;SDS011;68121;52.404;5.318;2023-11-21T05:36:30;8.00;;;1.95;;
78778;SDS011;68121;52.404;5.318;2023-11-21T05:38:57;3.42;;;1.52;;
78778;SDS011;68121;52.404;5.318;2023-11-21T05:41:23;6.20;;;2.00;;
78778;SDS011;68121;52.404;5.318;2023-11-21T05:43:49;6.35;;;1.70;;
78778;SDS011;68121;52.404;5.318;2023-11-21T05:46:15;7.55;;;1.60;;
78778;SDS011;68121;52.404;5.318;2023-11-21T05:48:41;2.72;;;1.58;;
78778;SDS011;68121;52.404;5.318;2023-11-21T05:51:07;4.70;;;1.58;;
78778;SDS011;68121;52.404;5.318;2023-11-21T05:53:38;4.75;;;1.75;;
78778;SDS011;68121;52.404;5.318;2023-11-21T05:56:04;4.70;;;1.60;;
78778;SDS011;68121;52.404;5.318;2023-11-21T05:58:30;4.60;;;1.42;;
78778;SDS011;68121;52.404;5.318;2023-11-21T06:00:56;4.00;;;1.70;;
78778;SDS011;68121;52.404;5.318;2023-11-21T06:03:23;5.40;;;1.90;;
78778;SDS011;68121;52.404;5.318;2023-11-21T06:05:49;4.85;;;1.80;;
78778;SDS011;68121;52.404;5.318;2023-11-21T06:08:15;4.72;;;2.10;;
78778;SDS011;68121;52.404;5.318;2023-11-21T06:10:42;5.75;;;1.75;;
78778;SDS011;68121;52.404;5.318;2023-11-21T06:13:09;5.97;;;1.80;;
78778;SDS011;68121;52.404;5.318;2023-11-21T06:15:36;4.40;;;2.05;;
78778;SDS011;68121;52.404;5.318;2023-11-21T06:18:02;4.15;;;1.65;;
78778;SDS011;68121;52.404;5.318;2023-11-21T06:20:28;3.40;;;1.75;;
78778;SDS011;68121;52.404;5.318;2023-11-21T06:22:54;2.58;;;1.23;;
78778;SDS011;68121;52.404;5.318;2023-11-21T06:25:20;3.88;;;1.38;;
78778;SDS011;68121;52.404;5.318;2023-11-21T06:27:47;9.50;;;1.90;;
78778;SDS011;68121;52.404;5.318;2023-11-21T06:30:13;4.82;;;1.30;;
78778;SDS011;68121;52.404;5.318;2023-11-21T06:32:41;3.88;;;1.70;;
78778;SDS011;68121;52.404;5.318;2023-11-21T06:35:11;2.97;;;1.13;;
78778;SDS011;68121;52.404;5.318;2023-11-21T06:37:37;6.55;;;1.52;;
78778;SDS011;68121;52.404;5.318;2023-11-21T06:40:03;4.30;;;1.17;;
78778;SDS011;68121;52.404;5.318;2023-11-21T06:42:30;4.72;;;1.58;;
78778;SDS011;68121;52.404;5.318;2023-11-21T06:44:58;8.38;;;1.85;;
78778;SDS011;68121;52.404;5.318;2023-11-21T06:47:29;4.25;;;1.58;;
78778;SDS011;68121;52.404;5.318;2023-11-21T06:49:56;6.57;;;1.70;;
78778;SDS011;68121;52.404;5.318;2023-11-21T06:52:22;3.78;;;1.65;;
78778;SDS011;68121;52.404;5.318;2023-11-21T06:54:48;3.95;;;1.70;;
78778;SDS011;68121;52.404;5.318;2023-11-21T06:57:17;2.85;;;1.45;;
78778;SDS011;68121;52.404;5.318;2023-11-21T06:59:44;5.72;;;1.60;;
78778;SDS011;68121;52.404;5.318;2023-11-21T07:02:10;3.88;;;1.48;;
78778;SDS011;68121;52.404;5.318;2023-11-21T07:04:36;4.88;;;2.28;;
78778;SDS011;68121;52.404;5.318;2023-11-21T07:07:02;5.50;;;2.38;;
78778;SDS011;68121;52.404;5.318;2023-11-21T07:09:29;8.05;;;2.53;;
78778;SDS011;68121;52.404;5.318;2023-11-21T07:11:56;4.00;;;2.00;;
78778;SDS011;68121;52.404;5.318;2023-11-21T07:14:22;9.75;;;3.40;;
78778;SDS011;68121;52.404;5.318;2023-11-21T07:16:49;7.18;;;2.70;;
78778;SDS011;68121;52.404;5.318;2023-11-21T07:19:15;9.27;;;3.50;;
78778;SDS011;68121;52.404;5.318;2023-11-21T07:21:41;8.07;;;2.90;;
78778;SDS011;68121;52.404;5.318;2023-11-21T07:24:07;7.40;;;2.78;;
78778;SDS011;68121;52.404;5.318;2023-11-21T07:26:34;9.90;;;3.17;;
78778;SDS011;68121;52.404;5.318;2023-11-21T07:29:01;8.63;;;3.17;;
78778;SDS011;68121;52.404;5.318;2023-11-21T07:31:28;10.52;;;3.50;;
78778;SDS011;68121;52.404;5.318;2023-11-21T07:33:54;8.70;;;2.60;;
78778;SDS011;68121;52.404;5.318;2023-11-21T07:36:23;5.55;;;2.97;;
78778;SDS011;68121;52.404;5.318;2023-11-21T07:38:49;7.72;;;3.17;;
78778;SDS011;68121;52.404;5.318;2023-11-21T07:41:17;6.20;;;2.45;;
78778;SDS011;68121;52.404;5.318;2023-11-21T07:43:46;6.07;;;2.55;;
78778;SDS011;68121;52.404;5.318;2023-11-21T07:46:12;5.22;;;2.33;;
78778;SDS011;68121;52.404;5.318;2023-11-21T07:48:39;5.15;;;2.38;;
78778;SDS011;68121;52.404;5.318;2023-11-21T07:51:07;4.53;;;2.40;;
78778;SDS011;68121;52.404;5.318;2023-11-21T07:53:34;4.97;;;2.13;;
78778;SDS011;68121;52.404;5.318;2023-11-21T07:56:04;4.65;;;2.78;;
78778;SDS011;68121;52.404;5.318;2023-11-21T07:58:32;6.32;;;2.47;;
78778;SDS011;68121;52.404;5.318;2023-11-21T08:01:01;5.00;;;2.22;;
78778;SDS011;68121;52.404;5.318;2023-11-21T08:03:28;4.85;;;2.13;;
78778;SDS011;68121;52.404;5.318;2023-11-21T08:05:57;6.38;;;2.45;;
78778;SDS011;68121;52.404;5.318;2023-11-21T08:08:25;5.78;;;2.25;;
78778;SDS011;68121;52.404;5.318;2023-11-21T08:10:51;7.28;;;2.63;;
78778;SDS011;68121;52.404;5.318;2023-11-21T08:13:25;5.93;;;2.58;;
78778;SDS011;68121;52.404;5.318;2023-11-21T08:15:56;4.65;;;2.10;;
78778;SDS011;68121;52.404;5.318;2023-11-21T08:18:27;6.68;;;2.25;;
78778;SDS011;68121;52.404;5.318;2023-11-21T08:20:54;4.80;;;2.70;;
78778;SDS011;68121;52.404;5.318;2023-11-21T08:23:20;4.57;;;2.28;;
78778;SDS011;68121;52.404;5.318;2023-11-21T08:25:51;4.88;;;1.90;;
78778;SDS011;68121;52.404;5.318;2023-11-21T08:28:18;6.32;;;2.30;;
78778;SDS011;68121;52.404;5.318;2023-11-21T08:30:44;4.65;;;2.20;;
78778;SDS011;68121;52.404;5.318;2023-11-21T08:33:10;3.38;;;2.17;;
78778;SDS011;68121;52.404;5.318;2023-11-21T08:35:39;3.28;;;1.50;;
78778;SDS011;68121;52.404;5.318;2023-11-21T08:38:05;4.47;;;1.88;;
78778;SDS011;68121;52.404;5.318;2023-11-21T08:40:31;3.25;;;1.60;;
78778;SDS011;68121;52.404;5.318;2023-11-21T08:42:57;8.00;;;2.00;;
78778;SDS011;68121;52.404;5.318;2023-11-21T08:45:24;3.75;;;1.95;;
78778;SDS011;68121;52.404;5.318;2023-11-21T08:47:51;5.15;;;1.80;;
78778;SDS011;68121;52.404;5.318;2023-11-21T08:50:17;6.57;;;2.47;;
78778;SDS011;68121;52.404;5.318;2023-11-21T08:52:45;4.35;;;2.10;;
78778;SDS011;68121;52.404;5.318;2023-11-21T08:55:11;3.45;;;1.98;;
78778;SDS011;68121;52.404;5.318;2023-11-21T08:57:40;4.18;;;1.80;;
78778;SDS011;68121;52.404;5.318;2023-11-21T09:00:09;3.83;;;1.60;;
78778;SDS011;68121;52.404;5.318;2023-11-21T09:02:37;6.03;;;2.53;;
78778;SDS011;68121;52.404;5.318;2023-11-21T09:05:05;6.20;;;2.10;;
78778;SDS011;68121;52.404;5.318;2023-11-21T09:07:31;6.63;;;2.97;;
78778;SDS011;68121;52.404;5.318;2023-11-21T09:09:57;5.20;;;2.70;;
78778;SDS011;68121;52.404;5.318;2023-11-21T09:12:24;4.70;;;2.30;;
78778;SDS011;68121;52.404;5.318;2023-11-21T09:14:53;5.40;;;1.95;;
78778;SDS011;68121;52.404;5.318;2023-11-21T09:17:19;5.78;;;2.45;;
78778;SDS011;68121;52.404;5.318;2023-11-21T09:19:45;4.43;;;2.10;;
78778;SDS011;68121;52.404;5.318;2023-11-21T09:22:15;7.93;;;2.67;;
78778;SDS011;68121;52.404;5.318;2023-11-21T09:24:42;6.50;;;2.83;;
78778;SDS011;68121;52.404;5.318;2023-11-21T09:27:08;5.15;;;2.63;;
78778;SDS011;68121;52.404;5.318;2023-11-21T09:29:35;6.63;;;2.50;;
78778;SDS011;68121;52.404;5.318;2023-11-21T09:32:04;8.35;;;3.10;;
78778;SDS011;68121;52.404;5.318;2023-11-21T09:34:34;7.55;;;3.13;;
78778;SDS011;68121;52.404;5.318;2023-11-21T09:37:04;8.85;;;3.53;;
78778;SDS011;68121;52.404;5.318;2023-11-21T09:39:32;8.15;;;2.85;;
78778;SDS011;68121;52.404;5.318;2023-11-21T09:42:13;7.63;;;3.17;;
78778;SDS011;68121;52.404;5.318;2023-11-21T09:47:27;7.28;;;3.42;;
78778;SDS011;68121;52.404;5.318;2023-11-21T09:49:54;8.90;;;4.15;;
78778;SDS011;68121;52.404;5.318;2023-11-21T09:52:24;7.38;;;3.47;;
78778;SDS011;68121;52.404;5.318;2023-11-21T09:54:52;9.20;;;3.70;;
78778;SDS011;68121;52.404;5.318;2023-11-21T09:57:19;9.05;;;3.38;;
78778;SDS011;68121;52.404;5.318;2023-11-21T09:59:53;12.57;;;4.35;;
78778;SDS011;68121;52.404;5.318;2023-11-21T10:02:27;9.50;;;3.83;;
78778;SDS011;68121;52.404;5.318;2023-11-21T10:04:58;11.07;;;4.30;;
78778;SDS011;68121;52.404;5.318;2023-11-21T10:07:25;11.70;;;4.53;;
78778;SDS011;68121;52.404;5.318;2023-11-21T10:09:52;10.23;;;4.50;;
78778;SDS011;68121;52.404;5.318;2023-11-21T10:12:20;12.88;;;5.47;;
78778;SDS011;68121;52.404;5.318;2023-11-21T10:14:48;13.52;;;5.25;;
78778;SDS011;68121;52.404;5.318;2023-11-21T10:17:15;10.50;;;4.85;;
78778;SDS011;68121;52.404;5.318;2023-11-21T10:19:45;14.73;;;4.82;;
78778;SDS011;68121;52.404;5.318;2023-11-21T10:22:14;8.70;;;3.92;;
78778;SDS011;68121;52.404;5.318;2023-11-21T10:24:41;9.45;;;4.03;;
78778;SDS011;68121;52.404;5.318;2023-11-21T10:27:09;10.68;;;4.15;;
78778;SDS011;68121;52.404;5.318;2023-11-21T10:29:35;11.85;;;4.55;;
78778;SDS011;68121;52.404;5.318;2023-11-21T10:32:04;11.38;;;3.95;;
78778;SDS011;68121;52.404;5.318;2023-11-21T10:34:31;11.27;;;4.60;;
78778;SDS011;68121;52.404;5.318;2023-11-21T10:36:57;10.95;;;4.78;;
78778;SDS011;68121;52.404;5.318;2023-11-21T10:39:24;10.95;;;4.32;;
78778;SDS011;68121;52.404;5.318;2023-11-21T10:41:56;10.07;;;4.20;;
78778;SDS011;68121;52.404;5.318;2023-11-21T10:44:22;11.88;;;3.95;;
78778;SDS011;68121;52.404;5.318;2023-11-21T10:46:50;7.82;;;3.08;;
78778;SDS011;68121;52.404;5.318;2023-11-21T10:49:18;9.77;;;3.63;;
78778;SDS011;68121;52.404;5.318;2023-11-21T10:51:45;7.72;;;3.35;;
78778;SDS011;68121;52.404;5.318;2023-11-21T10:54:11;7.40;;;3.72;;
78778;SDS011;68121;52.404;5.318;2023-11-21T10:56:38;7.47;;;3.05;;
78778;SDS011;68121;52.404;5.318;2023-11-21T10:59:09;8.65;;;4.13;;
78778;SDS011;68121;52.404;5.318;2023-11-21T11:01:42;7.60;;;3.13;;
78778;SDS011;68121;52.404;5.318;2023-11-21T11:04:14;7.03;;;2.90;;
78778;SDS011;68121;52.404;5.318;2023-11-21T11:06:42;7.18;;;3.40;;
78778;SDS011;68121;52.404;5.318;2023-11-21T11:09:12;8.38;;;2.72;;
78778;SDS011;68121;52.404;5.318;2023-11-21T11:11:40;6.00;;;2.50;;
78778;SDS011;68121;52.404;5.318;2023-11-21T11:14:12;7.38;;;2.72;;
78778;SDS011;68121;52.404;5.318;2023-11-21T11:16:39;6.88;;;2.90;;
78778;SDS011;68121;52.404;5.318;2023-11-21T11:19:07;6.85;;;2.78;;
78778;SDS011;68121;52.404;5.318;2023-11-21T11:21:37;6.90;;;2.65;;
78778;SDS011;68121;52.404;5.318;2023-11-21T11:30:32;9.88;;;3.80;;
78778;SDS011;68121;52.404;5.318;2023-11-21T11:36:28;13.23;;;5.95;;
78778;SDS011;68121;52.404;5.318;2023-11-21T11:38:59;15.75;;;5.80;;
78778;SDS011;68121;52.404;5.318;2023-11-21T11:41:27;15.75;;;6.65;;
78778;SDS011;68121;52.404;5.318;2023-11-21T11:43:58;17.23;;;6.05;;
78778;SDS011;68121;52.404;5.318;2023-11-21T11:46:41;14.95;;;5.75;;
78778;SDS011;68121;52.404;5.318;2023-11-21T11:49:08;17.45;;;6.82;;
78778;SDS011;68121;52.404;5.318;2023-11-21T11:51:34;12.65;;;5.68;;
78778;SDS011;68121;52.404;5.318;2023-11-21T11:54:01;17.23;;;5.80;;
78778;SDS011;68121;52.404;5.318;2023-11-21T11:56:28;18.58;;;6.00;;
78778;SDS011;68121;52.404;5.318;2023-11-21T11:58:58;14.10;;;6.43;;
78778;SDS011;68121;52.404;5.318;2023-11-21T12:01:28;15.35;;;6.43;;
78778;SDS011;68121;52.404;5.318;2023-11-21T12:06:57;13.50;;;5.22;;
78778;SDS011;68121;52.404;5.318;2023-11-21T12:09:27;12.32;;;5.25;;
78778;SDS011;68121;52.404;5.318;2023-11-21T12:11:54;14.50;;;6.35;;
78778;SDS011;68121;52.404;5.318;2023-11-21T12:14:24;18.02;;;6.00;;
78778;SDS011;68121;52.404;5.318;2023-11-21T12:16:51;14.27;;;5.95;;
78778;SDS011;68121;52.404;5.318;2023-11-21T12:19:17;12.73;;;5.82;;
78778;SDS011;68121;52.404;5.318;2023-11-21T12:21:44;13.57;;;6.10;;
78778;SDS011;68121;52.404;5.318;2023-11-21T12:24:10;14.68;;;6.00;;
78778;SDS011;68121;52.404;5.318;2023-11-21T12:26:39;11.57;;;5.18;;
78778;SDS011;68121;52.404;5.318;2023-11-21T12:29:05;11.50;;;5.15;;
78778;SDS011;68121;52.404;5.318;2023-11-21T12:31:33;12.00;;;4.85;;
78778;SDS011;68121;52.404;5.318;2023-11-21T12:34:00;13.80;;;5.25;;
78778;SDS011;68121;52.404;5.318;2023-11-21T12:36:26;13.75;;;4.95;;
78778;SDS011;68121;52.404;5.318;2023-11-21T12:38:55;12.23;;;6.03;;
78778;SDS011;68121;52.404;5.318;2023-11-21T12:41:22;12.88;;;5.65;;
78778;SDS011;68121;52.404;5.318;2023-11-21T12:43:48;12.48;;;5.20;;
78778;SDS011;68121;52.404;5.318;2023-11-21T12:46:14;13.48;;;5.80;;
78778;SDS011;68121;52.404;5.318;2023-11-21T12:48:41;13.63;;;4.85;;
78778;SDS011;68121;52.404;5.318;2023-11-21T12:51:11;11.50;;;4.63;;
78778;SDS011;68121;52.404;5.318;2023-11-21T12:53:40;10.48;;;4.82;;
78778;SDS011;68121;52.404;5.318;2023-11-21T12:58:37;13.20;;;4.45;;
78778;SDS011;68121;52.404;5.318;2023-11-21T13:01:07;9.43;;;3.95;;
78778;SDS011;68121;52.404;5.318;2023-11-21T13:03:46;12.98;;;4.28;;
78778;SDS011;68121;52.404;5.318;2023-11-21T13:06:14;9.88;;;4.88;;
78778;SDS011;68121;52.404;5.318;2023-11-21T13:08:41;10.10;;;4.75;;
78778;SDS011;68121;52.404;5.318;2023-11-21T13:11:10;11.23;;;4.45;;
78778;SDS011;68121;52.404;5.318;2023-11-21T13:13:40;11.80;;;5.32;;
78778;SDS011;68121;52.404;5.318;2023-11-21T13:16:08;9.60;;;4.65;;
78778;SDS011;68121;52.404;5.318;2023-11-21T13:18:35;9.88;;;5.05;;
78778;SDS011;68121;52.404;5.318;2023-11-21T13:21:03;13.57;;;4.95;;
78778;SDS011;68121;52.404;5.318;2023-11-21T13:23:40;9.55;;;4.57;;
78778;SDS011;68121;52.404;5.318;2023-11-21T13:26:07;9.77;;;4.40;;
78778;SDS011;68121;52.404;5.318;2023-11-21T13:28:35;10.43;;;5.18;;
78778;SDS011;68121;52.404;5.318;2023-11-21T13:31:03;8.32;;;4.40;;
78778;SDS011;68121;52.404;5.318;2023-11-21T13:33:47;11.15;;;5.00;;
78778;SDS011;68121;52.404;5.318;2023-11-21T13:36:21;10.68;;;4.85;;
78778;SDS011;68121;52.404;5.318;2023-11-21T13:38:51;10.23;;;4.40;;
78778;SDS011;68121;52.404;5.318;2023-11-21T13:41:20;9.27;;;3.65;;
78778;SDS011;68121;52.404;5.318;2023-11-21T13:43:53;9.82;;;4.60;;
78778;SDS011;68121;52.404;5.318;2023-11-21T13:46:28;9.88;;;4.07;;
78778;SDS011;68121;52.404;5.318;2023-11-21T13:48:59;8.95;;;4.50;;
78778;SDS011;68121;52.404;5.318;2023-11-21T13:51:26;12.13;;;4.88;;
78778;SDS011;68121;52.404;5.318;2023-11-21T13:54:06;10.10;;;4.45;;
78778;SDS011;68121;52.404;5.318;2023-11-21T13:56:37;6.35;;;2.30;;
78778;SDS011;68121;52.404;5.318;2023-11-21T13:59:05;8.82;;;4.10;;
78778;SDS011;68121;52.404;5.318;2023-11-21T14:01:50;9.13;;;4.03;;
78778;SDS011;68121;52.404;5.318;2023-11-21T14:04:21;9.55;;;4.13;;
78778;SDS011;68121;52.404;5.318;2023-11-21T14:06:56;8.20;;;3.47;;
78778;SDS011;68121;52.404;5.318;2023-11-21T14:09:24;8.80;;;4.50;;
78778;SDS011;68121;52.404;5.318;2023-11-21T14:11:51;10.15;;;4.95;;
78778;SDS011;68121;52.404;5.318;2023-11-21T14:14:26;9.35;;;4.85;;
78778;SDS011;68121;52.404;5.318;2023-11-21T14:16:53;9.65;;;5.15;;
78778;SDS011;68121;52.404;5.318;2023-11-21T14:19:21;10.80;;;5.30;;
78778;SDS011;68121;52.404;5.318;2023-11-21T14:21:52;8.73;;;4.32;;
78778;SDS011;68121;52.404;5.318;2023-11-21T14:24:18;9.40;;;4.70;;
78778;SDS011;68121;52.404;5.318;2023-11-21T14:26:45;8.77;;;4.43;;
78778;SDS011;68121;52.404;5.318;2023-11-21T14:29:12;8.68;;;3.97;;
78778;SDS011;68121;52.404;5.318;2023-11-21T14:31:41;9.98;;;3.70;;
78778;SDS011;68121;52.404;5.318;2023-11-21T14:34:07;8.35;;;4.32;;
78778;SDS011;68121;52.404;5.318;2023-11-21T14:36:34;7.20;;;4.60;;
78778;SDS011;68121;52.404;5.318;2023-11-21T14:39:02;7.75;;;4.53;;
78778;SDS011;68121;52.404;5.318;2023-11-21T14:41:32;7.50;;;4.40;;
78778;SDS011;68121;52.404;5.318;2023-11-21T14:44:01;7.25;;;4.40;;
78778;SDS011;68121;52.404;5.318;2023-11-21T14:46:28;7.03;;;4.18;;
78778;SDS011;68121;52.404;5.318;2023-11-21T14:48:55;7.13;;;4.20;;
78778;SDS011;68121;52.404;5.318;2023-11-21T14:51:37;7.22;;;4.18;;
78778;SDS011;68121;52.404;5.318;2023-11-21T14:54:23;7.32;;;4.35;;
78778;SDS011;68121;52.404;5.318;2023-11-21T14:57:05;6.82;;;3.92;;
78778;SDS011;68121;52.404;5.318;2023-11-21T14:59:37;6.70;;;4.07;;
78778;SDS011;68121;52.404;5.318;2023-11-21T15:02:08;10.05;;;5.00;;